createdAt,value
2022-08-19T00:02:04.143Z,98427.38
2022-08-19T00:04:37.167Z,98429.69
2022-08-19T00:07:06.644Z,98424.56
2022-08-19T00:09:34.369Z,98437.59
2022-08-19T00:12:02.090Z,98446.69
2022-08-19T00:14:32.247Z,98440.91
2022-08-19T00:16:59.649Z,98441.75
2022-08-19T00:19:26.513Z,98427.69
2022-08-19T00:21:53.992Z,98420.06
2022-08-19T00:24:20.894Z,98433.47
2022-08-19T00:26:47.790Z,98442.69
2022-08-19T00:29:18.634Z,98430.94
2022-08-19T00:31:46.935Z,98435.38
2022-08-19T00:34:15.767Z,98410.78
2022-08-19T00:36:43.946Z,98415.91
2022-08-19T00:39:11.680Z,98414.44
2022-08-19T00:41:38.775Z,98417.06
2022-08-19T00:44:13.655Z,98422.47
2022-08-19T00:46:44.328Z,98416.50
2022-08-19T00:49:26.051Z,98429.03
2022-08-19T00:52:04.373Z,98426.38
2022-08-19T00:54:32.457Z,98413.63
2022-08-19T00:57:00.653Z,98418.22
2022-08-19T00:59:58.828Z,98424.84
2022-08-19T01:02:18.029Z,98407.34
2022-08-19T01:04:44.893Z,98431.78
2022-08-19T01:07:15.021Z,98427.81
2022-08-19T01:09:44.295Z,98429.78
2022-08-19T01:12:11.187Z,98423.63
2022-08-19T01:14:41.236Z,98425.34
2022-08-19T01:17:12.338Z,98412.28
2022-08-19T01:19:44.659Z,98417.88
2022-08-19T01:22:33.667Z,98424.81
2022-08-19T01:25:01.804Z,98429.25
2022-08-19T01:27:43.680Z,98418.72
2022-08-19T01:30:16.507Z,98415.25
2022-08-19T01:32:44.218Z,98417.22
2022-08-19T01:35:14.320Z,98416.84
2022-08-19T01:37:52.856Z,98409.22
2022-08-19T01:40:22.175Z,98422.44
2022-08-19T01:42:50.994Z,98403.44
2022-08-19T01:45:20.474Z,98418.34
2022-08-19T01:47:51.592Z,98418.34
2022-08-19T01:50:28.660Z,98411.34
2022-08-19T01:53:02.419Z,98416.31
2022-08-19T01:55:37.016Z,98408.22
2022-08-19T01:58:16.527Z,98405.09
2022-08-19T02:00:44.252Z,98416.63
2022-08-19T02:03:12.244Z,98383.09
2022-08-19T02:05:40.623Z,98406.84
2022-08-19T02:08:08.474Z,98415.94
2022-08-19T02:10:40.520Z,98412.31
2022-08-19T02:13:07.820Z,98413.16
2022-08-19T02:15:34.823Z,98402.56
2022-08-19T02:18:01.659Z,98410.47
2022-08-19T02:20:28.489Z,98412.28
2022-08-19T02:22:55.366Z,98421.72
2022-08-19T02:25:22.227Z,98413.09
2022-08-19T02:27:49.049Z,98434.56
2022-08-19T02:30:19.935Z,98430.56
2022-08-19T02:32:46.870Z,98415.91
2022-08-19T02:35:15.390Z,98415.75
2022-08-19T02:38:02.243Z,98401.69
2022-08-19T02:40:33.937Z,98416.72
2022-08-19T02:43:01.907Z,98400.56
2022-08-19T02:45:33.803Z,98418.22
2022-08-19T02:48:00.674Z,98389.03
2022-08-19T02:50:30.219Z,98410.31
2022-08-19T02:52:57.071Z,98403.53
2022-08-19T02:55:24.013Z,98405.53
2022-08-19T02:57:50.843Z,98403.53
2022-08-19T03:00:17.827Z,98385.88
2022-08-19T03:02:44.671Z,98401.53
2022-08-19T03:05:11.790Z,98403.19
2022-08-19T03:07:39.058Z,98407.50
2022-08-19T03:10:07.339Z,98417.72
2022-08-19T03:12:38.646Z,98413.88
2022-08-19T03:15:08.721Z,98421.88
2022-08-19T03:17:36.340Z,98408.25
2022-08-19T03:20:04.940Z,98422.16
2022-08-19T03:22:31.822Z,98425.25
2022-08-19T03:25:00.050Z,98437.41
2022-08-19T03:27:31.204Z,98403.09
2022-08-19T03:30:01.398Z,98427.69
2022-08-19T03:32:32.983Z,98438.91
2022-08-19T03:35:00.334Z,98431.97
2022-08-19T03:37:27.510Z,98421.91
2022-08-19T03:39:54.386Z,98431.38
2022-08-19T03:42:32.952Z,98423.09
2022-08-19T03:45:08.584Z,98415.97
2022-08-19T03:47:35.429Z,98425.59
2022-08-19T03:50:03.061Z,98432.28
2022-08-19T03:52:29.893Z,98423.78
2022-08-19T03:54:56.741Z,98423.50
2022-08-19T03:57:24.449Z,98446.75
2022-08-19T04:00:12.735Z,98439.00
2022-08-19T04:02:42.861Z,98425.38
2022-08-19T04:05:27.584Z,98426.34
2022-08-19T04:07:54.955Z,98423.88
2022-08-19T04:10:21.847Z,98425.53
2022-08-19T04:12:48.706Z,98418.38
2022-08-19T04:15:16.396Z,98421.38
2022-08-19T04:17:43.244Z,98426.81
2022-08-19T04:20:10.915Z,98422.22
2022-08-19T04:22:37.766Z,98415.28
2022-08-19T04:25:04.975Z,98414.16
2022-08-19T04:27:32.189Z,98428.84
2022-08-19T04:29:59.024Z,98418.44
2022-08-19T04:32:25.874Z,98420.28
2022-08-19T04:35:03.192Z,98403.06
2022-08-19T04:37:40.026Z,98419.75
2022-08-19T04:40:27.014Z,98405.59
2022-08-19T04:42:54.552Z,98387.41
2022-08-19T04:45:22.985Z,98409.38
2022-08-19T04:47:58.799Z,98422.75
2022-08-19T04:50:37.125Z,98413.81
2022-08-19T04:53:04.126Z,98421.91
2022-08-19T04:55:33.365Z,98421.38
2022-08-19T04:58:03.379Z,98427.44
2022-08-19T05:00:30.246Z,98435.25
2022-08-19T05:02:57.079Z,98422.69
2022-08-19T05:05:23.899Z,98439.66
2022-08-19T05:07:50.790Z,98451.28
2022-08-19T05:10:17.860Z,98447.66
2022-08-19T05:12:44.710Z,98461.88
2022-08-19T05:15:12.046Z,98479.66
2022-08-19T05:17:39.419Z,98477.75
2022-08-19T05:20:27.781Z,98484.22
2022-08-19T05:22:55.089Z,98499.28
2022-08-19T05:25:23.156Z,98505.09
2022-08-19T05:27:50.370Z,98505.69
2022-08-19T05:30:18.145Z,98523.06
2022-08-19T05:32:45.452Z,98515.16
2022-08-19T05:35:13.048Z,98523.38
2022-08-19T05:37:43.284Z,98534.81
2022-08-19T05:40:11.103Z,98540.91
2022-08-19T05:42:38.916Z,98536.34
2022-08-19T05:45:07.085Z,98533.38
2022-08-19T05:47:34.048Z,98529.22
2022-08-19T05:50:04.921Z,98537.97
2022-08-19T05:52:32.370Z,98530.06
2022-08-19T05:55:00.360Z,98525.41
2022-08-19T05:57:29.765Z,98517.63
2022-08-19T05:59:58.795Z,98504.63
2022-08-19T06:02:27.781Z,98516.00
2022-08-19T06:04:54.631Z,98525.91
2022-08-19T06:07:21.665Z,98527.81
2022-08-19T06:09:59.890Z,98527.75
2022-08-19T06:12:29.864Z,98531.72
2022-08-19T06:15:00.990Z,98519.16
2022-08-19T06:17:31.484Z,98536.97
2022-08-19T06:19:59.203Z,98526.75
2022-08-19T06:22:26.149Z,98534.22
2022-08-19T06:24:54.631Z,98521.78
2022-08-19T06:27:22.287Z,98537.81
2022-08-19T06:29:49.687Z,98549.34
2022-08-19T06:32:19.536Z,98537.06
2022-08-19T06:34:46.478Z,98531.97
2022-08-19T06:37:13.722Z,98546.88
2022-08-19T06:39:44.021Z,98547.59
2022-08-19T06:42:14.206Z,98540.81
2022-08-19T06:44:43.833Z,98547.53
2022-08-19T06:47:23.657Z,98534.59
2022-08-19T06:50:05.442Z,98553.25
2022-08-19T06:52:36.662Z,98538.50
2022-08-19T06:55:06.744Z,98552.72
2022-08-19T06:57:34.898Z,98549.88
2022-08-19T07:00:02.352Z,98548.28
2022-08-19T07:02:29.402Z,98554.97
2022-08-19T07:04:59.053Z,98541.75
2022-08-19T07:07:26.006Z,98545.25
2022-08-19T07:09:59.302Z,98544.94
2022-08-19T07:12:35.865Z,98536.44
2022-08-19T07:15:06.710Z,98541.13
2022-08-19T07:17:34.458Z,98542.25
2022-08-19T07:20:07.082Z,98553.00
2022-08-19T07:22:37.588Z,98541.13
2022-08-19T07:25:07.177Z,98557.69
2022-08-19T07:27:34.851Z,98547.34
2022-08-19T07:30:02.151Z,98555.47
2022-08-19T07:32:29.170Z,98561.88
2022-08-19T07:34:56.451Z,98559.41
2022-08-19T07:37:31.964Z,98556.94
2022-08-19T07:40:00.479Z,98564.13
2022-08-19T07:42:29.717Z,98573.13
2022-08-19T07:44:56.540Z,98559.16
2022-08-19T07:47:47.732Z,98569.94
2022-08-19T07:50:12.487Z,98566.63
2022-08-19T07:52:40.447Z,98566.63
2022-08-19T07:55:40.403Z,98573.84
2022-08-19T07:57:58.158Z,98542.34
2022-08-19T08:00:25.326Z,98560.88
2022-08-19T08:02:55.834Z,98563.38
2022-08-19T08:05:44.151Z,98576.47
2022-08-19T08:08:47.327Z,98560.59
2022-08-19T08:11:19.964Z,98578.00
2022-08-19T08:14:01.083Z,98576.84
2022-08-19T08:16:39.766Z,98586.00
2022-08-19T08:19:25.328Z,98584.44
2022-08-19T08:21:55.221Z,98566.94
2022-08-19T08:24:22.094Z,98559.41
2022-08-19T08:26:57.491Z,98572.19
2022-08-19T08:29:26.101Z,98570.13
2022-08-19T08:31:58.628Z,98572.47
2022-08-19T08:34:26.813Z,98580.16
2022-08-19T08:36:53.727Z,98577.69
2022-08-19T08:39:22.546Z,98565.63
2022-08-19T08:42:23.873Z,98570.22
2022-08-19T08:45:00.238Z,98558.88
2022-08-19T08:47:33.692Z,98568.66
2022-08-19T08:50:13.593Z,98561.34
2022-08-19T08:52:52.839Z,98575.66
2022-08-19T08:55:26.477Z,98575.38
2022-08-19T08:58:07.658Z,98584.94
2022-08-19T09:00:42.257Z,98574.91
2022-08-19T09:03:34.783Z,98592.19
2022-08-19T09:06:11.991Z,98591.16
2022-08-19T09:09:03.982Z,98588.38
2022-08-19T09:11:42.386Z,98592.16
2022-08-19T09:14:51.064Z,98590.25
2022-08-19T09:17:29.146Z,98584.03
2022-08-19T09:20:09.521Z,98604.19
2022-08-19T09:22:44.834Z,98588.47
2022-08-19T09:25:18.117Z,98607.66
2022-08-19T09:27:55.660Z,98599.75
2022-08-19T09:30:40.329Z,98595.47
2022-08-19T09:33:08.179Z,98600.06
2022-08-19T09:35:50.129Z,98604.19
2022-08-19T09:38:21.866Z,98594.47
2022-08-19T09:40:50.472Z,98607.66
2022-08-19T09:43:32.838Z,98597.56
2022-08-19T09:46:01.704Z,98607.50
2022-08-19T09:48:28.650Z,98614.00
2022-08-19T09:50:55.508Z,98601.69
2022-08-19T09:53:25.433Z,98600.97
2022-08-19T09:55:53.134Z,98581.53
2022-08-19T09:58:23.503Z,98604.66
2022-08-19T10:00:54.630Z,98609.09
2022-08-19T10:03:21.686Z,98602.47
2022-08-19T10:05:55.490Z,98610.75
2022-08-19T10:08:36.283Z,98610.91
2022-08-19T10:11:28.083Z,98599.97
2022-08-19T10:13:52.678Z,98593.94
2022-08-19T10:16:26.040Z,98613.00
2022-08-19T10:18:58.736Z,98607.28
2022-08-19T10:21:32.501Z,98619.72
2022-08-19T10:24:04.996Z,98610.28
2022-08-19T10:26:38.244Z,98614.44
2022-08-19T10:29:06.572Z,98618.19
2022-08-19T10:32:00.878Z,98604.72
2022-08-19T10:34:27.830Z,98611.66
2022-08-19T10:37:01.164Z,98595.31
2022-08-19T10:39:31.472Z,98601.13
2022-08-19T10:41:59.816Z,98596.81
2022-08-19T10:44:32.310Z,98604.44
2022-08-19T10:47:00.150Z,98602.47
2022-08-19T10:49:28.145Z,98608.72
2022-08-19T10:52:18.742Z,98595.38
2022-08-19T10:55:08.395Z,98605.31
2022-08-19T10:57:59.303Z,98606.41
2022-08-19T11:00:25.463Z,98605.56
2022-08-19T11:02:52.923Z,98613.69
2022-08-19T11:05:20.458Z,98616.25
2022-08-19T11:07:52.740Z,98593.50
2022-08-19T11:10:21.782Z,98595.75
2022-08-19T11:12:49.403Z,98612.34
2022-08-19T11:15:16.919Z,98603.41
2022-08-19T11:17:44.761Z,98614.31
2022-08-19T11:20:14.144Z,98611.53
2022-08-19T11:22:42.249Z,98595.00
2022-08-19T11:25:11.810Z,98611.56
2022-08-19T11:27:43.179Z,98599.69
2022-08-19T11:30:13.565Z,98605.91
2022-08-19T11:32:45.932Z,98601.34
2022-08-19T11:35:17.029Z,98603.28
2022-08-19T11:37:43.882Z,98610.78
2022-08-19T11:40:11.937Z,98599.84
2022-08-19T11:42:57.115Z,98596.13
2022-08-19T11:45:25.935Z,98610.06
2022-08-19T11:47:53.541Z,98609.31
2022-08-19T11:50:21.421Z,98606.53
2022-08-19T11:52:50.584Z,98601.97
2022-08-19T11:55:17.657Z,98602.09
2022-08-19T11:57:44.645Z,98596.47
2022-08-19T12:00:14.059Z,98602.19
2022-08-19T12:02:41.464Z,98591.03
2022-08-19T12:05:12.234Z,98605.13
2022-08-19T12:07:40.641Z,98606.72
2022-08-19T12:10:08.427Z,98605.63
2022-08-19T12:12:35.556Z,98611.28
2022-08-19T12:15:03.296Z,98610.28
2022-08-19T12:17:31.755Z,98610.28
2022-08-19T12:19:58.819Z,98610.97
2022-08-19T12:22:25.923Z,98597.72
2022-08-19T12:24:54.125Z,98607.50
2022-08-19T12:27:32.249Z,98612.63
2022-08-19T12:30:12.281Z,98610.97
2022-08-19T12:32:39.801Z,98615.56
2022-08-19T12:35:09.068Z,98617.19
2022-08-19T12:37:36.117Z,98601.28
2022-08-19T12:40:04.319Z,98603.91
2022-08-19T12:42:31.415Z,98606.97
2022-08-19T12:44:58.355Z,98611.66
2022-08-19T12:47:27.328Z,98595.81
2022-08-19T12:49:56.014Z,98624.16
2022-08-19T12:52:27.979Z,98617.47
2022-08-19T12:54:58.297Z,98618.56
2022-08-19T12:57:32.230Z,98609.44
2022-08-19T13:00:05.885Z,98627.84
2022-08-19T13:02:34.297Z,98618.88
2022-08-19T13:05:09.282Z,98630.47
2022-08-19T13:07:38.201Z,98629.09
2022-08-19T13:10:10.117Z,98599.28
2022-08-19T13:12:37.103Z,98627.72
2022-08-19T13:15:10.662Z,98613.41
2022-08-19T13:17:39.516Z,98630.78
2022-08-19T13:20:10.081Z,98640.25
2022-08-19T13:22:37.792Z,98647.16
2022-08-19T13:25:07.285Z,98642.88
2022-08-19T13:27:34.625Z,98627.88
2022-08-19T13:30:20.965Z,98648.72
2022-08-19T13:33:06.149Z,98654.81
2022-08-19T13:35:33.045Z,98628.13
2022-08-19T13:38:01.757Z,98646.09
2022-08-19T13:40:30.074Z,98623.88
2022-08-19T13:42:57.054Z,98620.13
2022-08-19T13:45:25.833Z,98629.44
2022-08-19T13:47:59.205Z,98632.22
2022-08-19T13:50:32.312Z,98628.78
2022-08-19T13:52:59.827Z,98604.22
2022-08-19T13:55:27.914Z,98620.94
2022-08-19T13:57:57.951Z,98634.47
2022-08-19T14:00:28.793Z,98624.78
2022-08-19T14:02:58.375Z,98627.88
2022-08-19T14:05:27.841Z,98622.75
2022-08-19T14:07:55.572Z,98618.84
2022-08-19T14:10:24.780Z,98628.94
2022-08-19T14:12:56.603Z,98637.56
2022-08-19T14:15:24.294Z,98619.31
2022-08-19T14:17:52.178Z,98635.09
2022-08-19T14:20:19.770Z,98620.75
2022-08-19T14:22:48.764Z,98631.53
2022-08-19T14:25:21.750Z,98631.81
2022-08-19T14:27:49.515Z,98627.34
2022-08-19T14:30:22.087Z,98632.34
2022-08-19T14:32:48.970Z,98631.81
2022-08-19T14:35:17.434Z,98636.94
2022-08-19T14:37:46.339Z,98633.56
2022-08-19T14:40:17.059Z,98608.84
2022-08-19T14:42:44.771Z,98634.84
2022-08-19T14:45:13.411Z,98622.78
2022-08-19T14:47:40.967Z,98628.06
2022-08-19T14:50:18.438Z,98629.50
2022-08-19T14:52:48.765Z,98607.97
2022-08-19T14:55:18.261Z,98627.56
2022-08-19T14:57:45.990Z,98625.31
2022-08-19T15:00:14.346Z,98616.50
2022-08-19T15:02:42.421Z,98609.44
2022-08-19T15:05:09.899Z,98635.13
2022-08-19T15:07:38.101Z,98626.97
2022-08-19T15:10:08.073Z,98629.88
2022-08-19T15:12:43.264Z,98637.22
2022-08-19T15:15:14.105Z,98645.22
2022-08-19T15:17:46.051Z,98638.16
2022-08-19T15:20:23.640Z,98632.19
2022-08-19T15:22:50.810Z,98634.69
2022-08-19T15:25:19.803Z,98641.91
2022-08-19T15:27:47.187Z,98620.59
2022-08-19T15:30:29.257Z,98638.00
2022-08-19T15:32:59.039Z,98626.09
2022-08-19T15:35:26.725Z,98635.22
2022-08-19T15:37:54.934Z,98624.16
2022-08-19T15:40:23.824Z,98631.59
2022-08-19T15:42:50.797Z,98613.75
2022-08-19T15:45:21.381Z,98635.75
2022-08-19T15:47:48.860Z,98628.00
2022-08-19T15:50:21.357Z,98631.59
2022-08-19T15:52:58.700Z,98630.78
2022-08-19T15:55:34.571Z,98604.25
2022-08-19T15:58:34.398Z,98636.63
2022-08-19T16:01:24.019Z,98642.59
2022-08-19T16:04:14.701Z,98637.16
2022-08-19T16:06:50.521Z,98640.41
2022-08-19T16:09:26.436Z,98646.84
2022-08-19T16:11:56.947Z,98634.06
2022-08-19T16:14:26.429Z,98615.91
2022-08-19T16:16:54.932Z,98649.06
2022-08-19T16:19:21.808Z,98625.56
2022-08-19T16:21:52.413Z,98634.28
2022-08-19T16:24:25.657Z,98647.16
2022-08-19T16:26:52.720Z,98639.94
2022-08-19T16:29:34.040Z,98654.88
2022-08-19T16:32:11.660Z,98640.34
2022-08-19T16:34:41.366Z,98647.50
2022-08-19T16:37:10.051Z,98655.25
2022-08-19T16:39:37.570Z,98607.34
2022-08-19T16:42:07.342Z,98659.22
2022-08-19T16:44:35.365Z,98657.44
2022-08-19T16:47:02.923Z,98658.44
2022-08-19T16:49:52.821Z,98656.22
2022-08-19T16:52:20.671Z,98659.38
2022-08-19T16:54:48.063Z,98651.84
2022-08-19T16:57:15.038Z,98653.66
2022-08-19T16:59:43.829Z,98675.34
2022-08-19T17:02:16.197Z,98662.31
2022-08-19T17:04:43.087Z,98680.91
2022-08-19T17:07:10.733Z,98676.47
2022-08-19T17:09:38.128Z,98663.34
2022-08-19T17:12:05.784Z,98674.66
2022-08-19T17:14:32.659Z,98663.03
2022-08-19T17:16:59.487Z,98657.25
2022-08-19T17:19:28.310Z,98670.81
2022-08-19T17:21:57.710Z,98675.13
2022-08-19T17:24:24.554Z,98681.88
2022-08-19T17:26:51.358Z,98678.97
2022-08-19T17:29:18.183Z,98665.69
2022-08-19T17:31:44.990Z,98671.34
2022-08-19T17:34:11.850Z,98684.38
2022-08-19T17:36:38.980Z,98683.97
2022-08-19T17:39:06.009Z,98682.25
2022-08-19T17:41:36.626Z,98691.22
2022-08-19T17:44:04.177Z,98679.91
2022-08-19T17:46:31.458Z,98673.81
2022-08-19T17:48:58.528Z,98687.34
2022-08-19T17:51:47.093Z,98675.75
2022-08-19T17:54:18.595Z,98688.31
2022-08-19T17:56:46.381Z,98685.84
2022-08-19T17:59:15.237Z,98654.84
2022-08-19T18:01:53.756Z,98689.00
2022-08-19T18:04:24.976Z,98670.63
2022-08-19T18:06:55.045Z,98690.84
2022-08-19T18:09:42.686Z,98686.66
2022-08-19T18:12:15.662Z,98689.59
2022-08-19T18:14:42.662Z,98695.72
2022-08-19T18:17:13.162Z,98686.28
2022-08-19T18:19:43.908Z,98693.19
2022-08-19T18:22:36.452Z,98690.03
2022-08-19T18:25:11.504Z,98679.09
2022-08-19T18:27:39.166Z,98689.63
2022-08-19T18:30:07.856Z,98695.16
2022-08-19T18:32:38.258Z,98694.47
2022-08-19T18:35:24.109Z,98688.28
2022-08-19T18:37:51.502Z,98704.88
2022-08-19T18:40:40.919Z,98706.88
2022-08-19T18:43:23.191Z,98704.78
2022-08-19T18:46:09.632Z,98707.72
2022-08-19T18:48:56.684Z,98712.75
2022-08-19T18:51:28.458Z,98710.09
2022-08-19T18:53:59.019Z,98707.63
2022-08-19T18:56:31.782Z,98715.22
2022-08-19T18:59:00.325Z,98713.53
2022-08-19T19:01:39.494Z,98715.50
2022-08-19T19:04:12.008Z,98723.81
2022-08-19T19:06:41.374Z,98729.63
2022-08-19T19:09:21.207Z,98725.50
2022-08-19T19:11:54.026Z,98728.13
2022-08-19T19:14:48.685Z,98731.56
2022-08-19T19:17:16.714Z,98735.47
2022-08-19T19:19:44.290Z,98734.25
2022-08-19T19:22:15.268Z,98732.19
2022-08-19T19:24:45.105Z,98735.50
2022-08-19T19:27:14.406Z,98742.97
2022-08-19T19:29:43.545Z,98742.97
2022-08-19T19:32:29.369Z,98744.88
2022-08-19T19:34:56.573Z,98721.66
2022-08-19T19:37:23.395Z,98726.22
2022-08-19T19:39:50.292Z,98742.13
2022-08-19T19:42:21.157Z,98752.97
2022-08-19T19:44:51.845Z,98758.63
2022-08-19T19:47:19.495Z,98764.84
2022-08-19T19:50:13.942Z,98761.50
2022-08-19T19:52:38.993Z,98762.63
2022-08-19T19:55:06.690Z,98753.22
2022-08-19T19:57:33.517Z,98739.94
2022-08-19T20:00:00.451Z,98753.78
2022-08-19T20:02:27.624Z,98758.22
2022-08-19T20:04:56.197Z,98766.38
2022-08-19T20:07:43.006Z,98746.44
2022-08-19T20:10:09.835Z,98754.88
2022-08-19T20:12:36.717Z,98766.53
2022-08-19T20:15:04.757Z,98741.34
2022-08-19T20:17:32.490Z,98774.16
2022-08-19T20:19:59.565Z,98781.75
2022-08-19T20:22:26.375Z,98780.50
2022-08-19T20:24:53.836Z,98766.53
2022-08-19T20:27:25.091Z,98769.56
2022-08-19T20:29:52.803Z,98751.88
2022-08-19T20:32:19.683Z,98781.63
2022-08-19T20:34:49.045Z,98769.44
2022-08-19T20:37:15.920Z,98770.13
2022-08-19T20:39:42.798Z,98788.94
2022-08-19T20:42:09.803Z,98775.25
2022-08-19T20:44:37.724Z,98776.09
2022-08-19T20:47:04.768Z,98769.00
2022-08-19T20:49:32.440Z,98788.94
2022-08-19T20:51:59.329Z,98778.16
2022-08-19T20:54:27.051Z,98768.75
2022-08-19T20:56:54.352Z,98782.59
2022-08-19T20:59:22.957Z,98781.59
2022-08-19T21:01:53.575Z,98780.66
2022-08-19T21:04:21.436Z,98780.09
2022-08-19T21:06:49.992Z,98785.38
2022-08-19T21:09:17.048Z,98775.94
2022-08-19T21:11:44.096Z,98776.06
2022-08-19T21:14:11.033Z,98786.31
2022-08-19T21:16:37.855Z,98762.81
2022-08-19T21:19:04.851Z,98783.41
2022-08-19T21:21:33.029Z,98783.81
2022-08-19T21:23:59.992Z,98779.00
2022-08-19T21:26:27.169Z,98771.22
2022-08-19T21:28:54.022Z,98768.59
2022-08-19T21:31:21.123Z,98776.75
2022-08-19T21:33:48.043Z,98789.81
2022-08-19T21:36:14.905Z,98772.06
2022-08-19T21:38:41.729Z,98776.22
2022-08-19T21:41:09.003Z,98787.84
2022-08-19T21:43:37.770Z,98791.16
2022-08-19T21:46:05.228Z,98776.50
2022-08-19T21:48:32.815Z,98790.31
2022-08-19T21:50:59.627Z,98786.19
2022-08-19T21:53:34.214Z,98794.22
2022-08-19T21:56:03.149Z,98777.06
2022-08-19T21:58:30.853Z,98778.97
2022-08-19T22:01:05.825Z,98787.00
2022-08-19T22:03:37.708Z,98806.94
2022-08-19T22:06:05.648Z,98800.03
2022-08-19T22:08:32.619Z,98796.72
2022-08-19T22:10:59.512Z,98786.72
2022-08-19T22:13:26.887Z,98791.16
2022-08-19T22:15:55.216Z,98789.81
2022-08-19T22:18:22.092Z,98777.03
2022-08-19T22:20:48.988Z,98780.66
2022-08-19T22:23:15.960Z,98803.47
2022-08-19T22:25:47.082Z,98801.84
2022-08-19T22:28:18.962Z,98798.09
2022-08-19T22:30:55.821Z,98804.44
2022-08-19T22:33:23.415Z,98801.97
2022-08-19T22:35:52.749Z,98811.94
2022-08-19T22:38:19.719Z,98797.94
2022-08-19T22:40:49.583Z,98812.06
2022-08-19T22:43:19.773Z,98797.81
2022-08-19T22:45:48.348Z,98795.31
2022-08-19T22:48:18.290Z,98806.94
2022-08-19T22:51:07.265Z,98802.09
2022-08-19T22:53:37.417Z,98806.94
2022-08-19T22:56:06.557Z,98800.03
2022-08-19T22:58:33.470Z,98798.66
2022-08-19T23:01:01.641Z,98809.16
2022-08-19T23:03:29.133Z,98808.31
2022-08-19T23:05:56.236Z,98806.13
2022-08-19T23:08:24.097Z,98817.47
2022-08-19T23:10:50.919Z,98807.50
2022-08-19T23:13:18.125Z,98818.28
2022-08-19T23:15:46.996Z,98814.16
2022-08-19T23:18:14.220Z,98816.94
2022-08-19T23:20:43.236Z,98786.34
2022-08-19T23:23:13.045Z,98806.00
2022-08-19T23:25:40.493Z,98810.13
2022-08-19T23:28:26.403Z,98803.66
2022-08-19T23:30:54.210Z,98809.88
2022-08-19T23:33:46.856Z,98797.41
2022-08-19T23:36:17.847Z,98819.56
2022-08-19T23:38:46.803Z,98801.13
2022-08-19T23:41:15.416Z,98808.91
2022-08-19T23:43:44.181Z,98820.50
2022-08-19T23:46:14.770Z,98820.78
2022-08-19T23:48:55.560Z,98804.75
2022-08-19T23:51:22.736Z,98805.81
2022-08-19T23:53:49.580Z,98818.56
2022-08-19T23:56:16.389Z,98809.44
2022-08-19T23:58:43.265Z,98825.50
